createdAt,value
2019-03-22T00:00:22.211Z,43.83
2019-03-22T00:02:54.275Z,45.67
2019-03-22T00:05:26.265Z,45.80
2019-03-22T00:08:00.233Z,39.80
2019-03-22T00:10:32.233Z,39.63
2019-03-22T00:13:05.495Z,40.90
2019-03-22T00:15:37.723Z,40.17
2019-03-22T00:18:09.850Z,45.93
2019-03-22T00:20:42.129Z,41.00
2019-03-22T00:23:14.261Z,38.73
2019-03-22T00:25:46.397Z,41.43
2019-03-22T00:28:20.194Z,40.97
2019-03-22T00:30:52.880Z,37.27
2019-03-22T00:33:24.857Z,35.50
2019-03-22T00:35:57.227Z,37.10
2019-03-22T00:38:32.811Z,38.93
2019-03-22T00:41:04.929Z,36.70
2019-03-22T00:43:36.943Z,36.97
2019-03-22T00:46:09.127Z,32.97
2019-03-22T00:48:41.588Z,34.70
2019-03-22T00:51:13.628Z,39.37
2019-03-22T00:53:45.638Z,33.30
2019-03-22T00:56:17.751Z,31.97
2019-03-22T00:58:49.761Z,33.37
2019-03-22T01:01:21.766Z,35.60
2019-03-22T01:03:53.747Z,33.63
2019-03-22T01:06:26.029Z,32.73
2019-03-22T01:08:58.333Z,34.33
2019-03-22T01:11:30.331Z,34.07
2019-03-22T01:14:02.370Z,34.27
2019-03-22T01:16:34.430Z,31.10
2019-03-22T01:19:06.434Z,36.10
2019-03-22T01:21:38.440Z,36.77
2019-03-22T01:24:10.480Z,30.60
2019-03-22T01:26:42.438Z,34.37
2019-03-22T01:29:14.388Z,32.60
2019-03-22T01:31:46.440Z,34.20
2019-03-22T01:34:18.416Z,35.33
2019-03-22T01:36:50.716Z,39.83
2019-03-22T01:39:25.980Z,38.30
2019-03-22T01:41:58.678Z,35.43
2019-03-22T01:44:30.694Z,38.07
2019-03-22T01:47:02.955Z,48.40
2019-03-22T01:49:35.409Z,49.40
2019-03-22T01:52:07.475Z,49.90
2019-03-22T01:54:39.545Z,50.53
2019-03-22T01:57:11.611Z,49.97
2019-03-22T01:59:43.597Z,49.27
2019-03-22T02:02:15.851Z,52.87
2019-03-22T02:04:47.986Z,55.03
2019-03-22T02:07:20.164Z,52.33
2019-03-22T02:09:52.325Z,56.03
2019-03-22T02:12:24.476Z,57.13
2019-03-22T02:14:56.460Z,56.50
2019-03-22T02:17:28.433Z,67.00
2019-03-22T02:20:01.005Z,73.07
2019-03-22T02:22:33.015Z,59.77
2019-03-22T02:25:07.871Z,63.87
2019-03-22T02:27:40.034Z,60.97
2019-03-22T02:30:15.522Z,54.73
2019-03-22T02:32:47.572Z,48.13
2019-03-22T02:35:28.617Z,40.83
2019-03-22T02:37:53.240Z,44.37
2019-03-22T02:40:25.581Z,55.53
2019-03-22T02:42:57.686Z,53.60
2019-03-22T02:45:29.684Z,55.50
2019-03-22T02:48:01.778Z,50.67
2019-03-22T02:50:33.759Z,53.73
2019-03-22T02:53:07.205Z,54.30
2019-03-22T02:55:39.877Z,52.90
2019-03-22T02:58:20.642Z,47.93
2019-03-22T03:00:45.989Z,46.53
2019-03-22T03:03:17.972Z,42.00
2019-03-22T03:05:50.243Z,39.73
2019-03-22T03:08:22.298Z,41.93
2019-03-22T03:10:54.279Z,42.20
2019-03-22T03:13:26.453Z,40.57
2019-03-22T03:15:58.438Z,40.43
2019-03-22T03:18:30.996Z,36.63
2019-03-22T03:21:02.993Z,45.10
2019-03-22T03:23:35.039Z,42.53
2019-03-22T03:26:07.113Z,42.37
2019-03-22T03:28:39.129Z,43.83
2019-03-22T03:31:11.532Z,43.60
2019-03-22T03:33:43.700Z,43.93
2019-03-22T03:36:15.730Z,39.43
2019-03-22T03:38:47.728Z,40.27
2019-03-22T03:41:19.731Z,42.83
2019-03-22T03:43:51.871Z,47.83
2019-03-22T03:46:23.872Z,47.67
2019-03-22T03:48:55.977Z,50.87
2019-03-22T03:51:27.959Z,50.07
2019-03-22T03:53:59.962Z,48.60
2019-03-22T03:56:31.924Z,44.63
2019-03-22T03:59:03.971Z,38.47
2019-03-22T04:01:35.971Z,42.80
2019-03-22T04:04:08.271Z,45.03
2019-03-22T04:06:40.549Z,48.37
2019-03-22T04:09:12.580Z,41.73
2019-03-22T04:11:44.738Z,38.63
2019-03-22T04:14:16.752Z,35.43
2019-03-22T04:16:48.754Z,39.80
2019-03-22T04:19:21.538Z,41.83
2019-03-22T04:21:53.517Z,38.37
2019-03-22T04:24:25.553Z,33.90
2019-03-22T04:26:57.561Z,29.27
2019-03-22T04:29:29.611Z,29.30
2019-03-22T04:32:01.603Z,32.70
2019-03-22T04:34:33.639Z,26.63
2019-03-22T04:37:05.970Z,28.90
2019-03-22T04:39:37.997Z,29.50
2019-03-22T04:42:10.926Z,24.90
2019-03-22T04:44:42.937Z,28.23
2019-03-22T04:47:19.693Z,27.80
2019-03-22T04:49:53.509Z,23.23
2019-03-22T04:52:27.939Z,23.97
2019-03-22T04:55:02.627Z,24.13
2019-03-22T04:57:35.762Z,20.83
2019-03-22T05:00:23.591Z,22.17
2019-03-22T05:02:56.096Z,21.07
2019-03-22T05:05:29.709Z,24.20
2019-03-22T05:08:02.524Z,19.83
2019-03-22T05:10:37.552Z,19.93
2019-03-22T05:13:11.090Z,19.30
2019-03-22T05:15:44.178Z,20.87
2019-03-22T05:18:16.933Z,17.33
2019-03-22T05:20:51.898Z,17.27
2019-03-22T05:23:25.727Z,17.40
2019-03-22T05:26:00.099Z,20.23
2019-03-22T05:28:33.748Z,18.07
2019-03-22T05:31:22.116Z,18.80
2019-03-22T05:33:54.185Z,20.07
2019-03-22T05:36:26.229Z,17.40
2019-03-22T05:38:58.255Z,19.47
2019-03-22T05:41:30.320Z,19.63
2019-03-22T05:44:02.802Z,15.77
2019-03-22T05:46:34.842Z,15.10
2019-03-22T05:49:06.864Z,14.80
2019-03-22T05:51:38.925Z,16.27
2019-03-22T05:54:11.030Z,15.63
2019-03-22T05:56:43.079Z,16.23
2019-03-22T05:59:15.100Z,16.43
2019-03-22T06:01:47.095Z,16.47
2019-03-22T06:04:19.269Z,18.70
2019-03-22T06:06:51.406Z,16.43
2019-03-22T06:09:23.433Z,14.03
2019-03-22T06:11:56.289Z,16.17
2019-03-22T06:14:28.322Z,17.40
2019-03-22T06:17:00.365Z,17.10
2019-03-22T06:19:32.379Z,17.27
2019-03-22T06:22:04.723Z,16.07
2019-03-22T06:24:36.744Z,13.20
2019-03-22T06:27:09.527Z,15.37
2019-03-22T06:29:53.402Z,15.40
2019-03-22T06:32:15.543Z,13.27
2019-03-22T06:34:53.870Z,15.53
2019-03-22T06:37:27.221Z,12.53
2019-03-22T06:40:00.499Z,11.30
2019-03-22T06:42:43.201Z,8.93
2019-03-22T06:45:35.726Z,13.00
2019-03-22T06:48:18.353Z,14.40
2019-03-22T06:51:16.308Z,11.57
2019-03-22T06:53:56.996Z,11.53
2019-03-22T06:56:29.453Z,13.73
2019-03-22T06:59:05.320Z,9.33
2019-03-22T07:01:41.251Z,8.40
2019-03-22T07:04:13.537Z,8.10
2019-03-22T07:06:55.154Z,6.77
2019-03-22T07:09:31.754Z,4.13
2019-03-22T07:12:11.152Z,10.23
2019-03-22T07:14:47.679Z,4.37
2019-03-22T07:17:19.952Z,6.53
2019-03-22T07:19:52.320Z,5.37
2019-03-22T07:22:25.147Z,5.17
2019-03-22T07:24:57.249Z,5.30
2019-03-22T07:27:29.619Z,6.30
2019-03-22T07:30:01.679Z,5.60
2019-03-22T07:32:33.873Z,3.70
2019-03-22T07:35:06.940Z,4.27
2019-03-22T07:37:38.994Z,3.23
2019-03-22T07:40:12.746Z,5.67
2019-03-22T07:42:44.786Z,6.90
2019-03-22T07:45:17.086Z,5.50
2019-03-22T07:47:49.182Z,6.53
2019-03-22T07:50:21.225Z,8.67
2019-03-22T07:52:55.002Z,5.97
2019-03-22T07:55:27.868Z,6.17
2019-03-22T07:58:05.555Z,7.17
2019-03-22T08:00:40.941Z,5.57
2019-03-22T08:03:15.478Z,6.87
2019-03-22T08:05:51.432Z,5.93
2019-03-22T08:08:24.486Z,7.13
2019-03-22T08:10:58.054Z,8.67
2019-03-22T08:13:30.095Z,7.10
2019-03-22T08:16:04.574Z,8.90
2019-03-22T08:18:49.346Z,7.13
2019-03-22T08:21:31.640Z,6.00
2019-03-22T08:24:05.302Z,7.97
2019-03-22T08:26:37.855Z,7.80
2019-03-22T08:29:10.018Z,6.93
2019-03-22T08:31:42.081Z,10.37
2019-03-22T08:34:14.810Z,7.03
2019-03-22T08:36:46.953Z,6.90
2019-03-22T08:39:20.044Z,8.57
2019-03-22T08:41:52.100Z,8.27
2019-03-22T08:44:24.135Z,8.33
2019-03-22T08:46:56.183Z,7.30
2019-03-22T08:49:28.905Z,9.03
2019-03-22T08:52:01.942Z,8.53
2019-03-22T08:54:38.277Z,7.37
2019-03-22T08:57:10.888Z,7.77
2019-03-22T08:59:45.819Z,7.80
2019-03-22T09:02:21.193Z,8.13
2019-03-22T09:05:08.106Z,13.17
2019-03-22T09:07:53.565Z,8.73
2019-03-22T09:10:28.917Z,8.20
2019-03-22T09:13:10.579Z,12.63
2019-03-22T09:15:46.496Z,9.53
2019-03-22T09:18:30.217Z,9.43
2019-03-22T09:21:16.900Z,9.60
2019-03-22T09:23:56.934Z,12.13
2019-03-22T09:52:42.910Z,10.03
2019-03-22T09:55:15.465Z,8.93
2019-03-22T09:57:49.564Z,6.73
2019-03-22T10:00:33.735Z,7.90
2019-03-22T10:03:10.773Z,9.93
2019-03-22T10:05:43.711Z,8.10
2019-03-22T10:08:29.138Z,13.63
2019-03-22T10:11:08.028Z,8.60
2019-03-22T10:14:05.149Z,8.80
2019-03-22T10:20:20.725Z,8.73
2019-03-22T10:22:55.863Z,10.80
2019-03-22T10:25:28.787Z,9.97
2019-03-22T10:31:42.472Z,9.90
2019-03-22T10:34:25.087Z,11.30
2019-03-22T10:37:03.704Z,13.47
2019-03-22T10:40:03.981Z,12.37
2019-03-22T10:42:41.083Z,10.67
2019-03-22T10:45:14.118Z,11.87
2019-03-22T10:47:48.705Z,9.87
2019-03-22T10:59:30.444Z,10.27
2019-03-22T11:08:22.143Z,12.47
2019-03-22T11:10:54.263Z,11.90
2019-03-22T11:13:26.349Z,14.70
2019-03-22T11:26:37.636Z,12.50
2019-03-22T11:29:09.727Z,12.87
2019-03-22T11:31:42.167Z,13.80
2019-03-22T11:34:19.296Z,12.27
2019-03-22T11:36:52.830Z,13.97
2019-03-22T11:39:25.239Z,12.67
2019-03-22T11:41:57.344Z,14.00
2019-03-22T11:44:29.406Z,13.40
2019-03-22T11:47:06.181Z,15.30
2019-03-22T11:49:41.021Z,17.77
2019-03-22T11:52:14.617Z,15.57
2019-03-22T11:54:58.786Z,16.07
2019-03-22T11:57:34.909Z,16.20
2019-03-22T12:00:33.908Z,17.00
2019-03-22T12:03:10.777Z,14.83
2019-03-22T12:05:44.442Z,16.70
2019-03-22T12:08:17.275Z,15.03
2019-03-22T12:10:51.425Z,13.50
2019-03-22T12:13:23.687Z,15.63
2019-03-22T12:15:56.501Z,19.30
2019-03-22T12:18:28.830Z,14.77
2019-03-22T12:21:01.928Z,16.13
2019-03-22T12:33:14.916Z,14.57
2019-03-22T12:35:48.581Z,14.67
2019-03-22T12:38:21.363Z,23.30
2019-03-22T12:40:53.398Z,18.33
2019-03-22T12:43:26.988Z,17.87
2019-03-22T12:45:59.119Z,16.00
2019-03-22T12:48:31.326Z,14.53
2019-03-22T12:51:03.462Z,17.90
2019-03-22T12:53:35.569Z,21.90
2019-03-22T12:56:07.568Z,13.70
2019-03-22T12:58:39.666Z,18.37
2019-03-22T13:01:11.794Z,15.13
2019-03-22T13:03:44.447Z,15.43
2019-03-22T13:06:16.543Z,16.80
2019-03-22T13:08:48.578Z,16.07
2019-03-22T13:11:21.976Z,14.13
2019-03-22T13:13:54.032Z,16.97
2019-03-22T13:16:26.153Z,16.73
2019-03-22T13:18:58.188Z,15.57
2019-03-22T13:21:30.207Z,17.17
2019-03-22T13:24:02.560Z,17.00
2019-03-22T13:26:34.656Z,17.57
2019-03-22T13:29:06.758Z,18.23
2019-03-22T13:31:38.760Z,17.80
2019-03-22T13:34:10.792Z,17.70
2019-03-22T13:36:42.885Z,17.53
2019-03-22T13:39:14.889Z,20.17
2019-03-22T13:41:46.942Z,17.67
2019-03-22T13:44:18.927Z,19.27
2019-03-22T13:46:51.137Z,17.80
2019-03-22T13:49:23.155Z,19.97
2019-03-22T13:51:57.548Z,18.37
2019-03-22T13:54:30.219Z,17.23
2019-03-22T13:57:02.307Z,19.00
2019-03-22T13:59:34.472Z,19.00
2019-03-22T14:02:06.639Z,17.10
2019-03-22T14:04:39.008Z,19.87
2019-03-22T14:07:11.327Z,19.37
2019-03-22T14:09:43.800Z,18.80
2019-03-22T14:12:17.775Z,18.67
2019-03-22T14:14:50.175Z,19.30
2019-03-22T14:26:38.666Z,22.73
2019-03-22T14:29:13.703Z,23.27
2019-03-22T14:31:46.811Z,19.77
2019-03-22T14:34:20.671Z,20.83
2019-03-22T14:36:58.312Z,22.27
2019-03-22T14:39:31.792Z,23.73
2019-03-22T14:42:03.976Z,17.40
2019-03-22T14:44:36.646Z,20.27
2019-03-22T14:47:12.970Z,26.43
2019-03-22T14:49:47.526Z,21.37
2019-03-22T14:52:24.276Z,23.83
2019-03-22T14:54:58.518Z,25.87
2019-03-22T14:57:48.664Z,26.60
2019-03-22T15:00:18.003Z,23.97
2019-03-22T15:02:54.441Z,21.57
2019-03-22T15:05:41.602Z,22.90
2019-03-22T15:08:17.154Z,26.73
2019-03-22T15:10:53.819Z,25.23
2019-03-22T15:13:32.441Z,26.57
2019-03-22T15:19:21.762Z,24.00
2019-03-22T15:22:01.620Z,25.60
2019-03-22T15:24:35.656Z,22.63
2019-03-22T15:27:09.749Z,21.77
2019-03-22T15:29:49.763Z,23.57
2019-03-22T15:32:39.092Z,25.40
2019-03-22T15:35:31.065Z,25.37
2019-03-22T15:38:20.632Z,37.23
2019-03-22T15:40:52.769Z,27.93
2019-03-22T15:43:25.235Z,28.80
2019-03-22T15:45:57.382Z,32.77
2019-03-22T15:48:29.777Z,32.47
2019-03-22T15:51:01.804Z,33.63
2019-03-22T15:53:34.227Z,34.53
2019-03-22T15:56:06.416Z,38.13
2019-03-22T15:58:38.451Z,38.57
2019-03-22T16:01:11.310Z,36.13
2019-03-22T16:03:44.477Z,40.43
2019-03-22T16:06:19.386Z,43.73
2019-03-22T16:08:51.834Z,36.93
2019-03-22T16:11:24.058Z,38.67
2019-03-22T16:13:56.216Z,42.47
2019-03-22T16:16:28.580Z,42.73
2019-03-22T16:19:04.593Z,41.07
2019-03-22T16:21:36.846Z,40.50
2019-03-22T16:24:10.216Z,39.23
2019-03-22T16:26:44.035Z,39.83
2019-03-22T16:29:16.154Z,39.17
2019-03-22T16:31:53.139Z,39.53
2019-03-22T16:34:26.744Z,37.90
2019-03-22T16:36:59.188Z,38.53
2019-03-22T16:39:34.394Z,42.27
2019-03-22T16:42:07.452Z,38.17
2019-03-22T16:44:41.971Z,41.90
2019-03-22T16:47:13.965Z,38.17
2019-03-22T16:49:46.225Z,37.17
2019-03-22T16:52:18.286Z,36.17
2019-03-22T16:54:50.306Z,36.27
2019-03-22T16:57:23.153Z,37.13
2019-03-22T16:59:56.225Z,36.97
2019-03-22T17:02:28.325Z,39.37
2019-03-22T17:05:00.481Z,40.20
2019-03-22T17:07:32.821Z,34.83
2019-03-22T17:10:07.980Z,41.40
2019-03-22T17:12:40.046Z,39.37
2019-03-22T17:15:12.184Z,39.87
2019-03-22T17:17:45.446Z,36.63
2019-03-22T17:20:17.565Z,38.93
2019-03-22T17:22:50.369Z,38.90
2019-03-22T17:25:22.402Z,39.17
2019-03-22T17:27:54.861Z,40.33
2019-03-22T17:30:29.386Z,40.23
2019-03-22T17:33:01.383Z,39.43
2019-03-22T17:35:33.490Z,36.53
2019-03-22T17:38:06.039Z,41.00
2019-03-22T17:40:38.096Z,41.57
2019-03-22T17:43:10.106Z,39.30
2019-03-22T17:45:42.204Z,36.33
2019-03-22T17:48:14.192Z,38.57
2019-03-22T17:50:47.081Z,35.30
2019-03-22T17:53:19.128Z,31.93
2019-03-22T17:55:51.513Z,37.10
2019-03-22T17:58:23.912Z,37.03
2019-03-22T18:00:56.112Z,35.60
2019-03-22T18:03:28.477Z,38.07
2019-03-22T18:06:00.518Z,36.80
2019-03-22T18:08:32.596Z,33.60
2019-03-22T18:11:04.920Z,32.50
2019-03-22T18:13:36.957Z,34.93
2019-03-22T18:16:09.031Z,36.40
2019-03-22T18:18:41.661Z,37.03
2019-03-22T18:21:14.329Z,32.83
2019-03-22T18:23:47.187Z,33.37
2019-03-22T18:26:19.564Z,30.37
2019-03-22T18:28:51.974Z,31.23
2019-03-22T18:31:23.970Z,34.77
2019-03-22T18:33:56.355Z,32.43
2019-03-22T18:36:28.340Z,32.33
2019-03-22T18:39:00.348Z,33.10
2019-03-22T18:41:32.776Z,32.37
2019-03-22T18:44:05.051Z,31.10
2019-03-22T18:46:37.076Z,32.87
2019-03-22T18:49:09.549Z,33.93
2019-03-22T18:51:41.689Z,32.27
2019-03-22T18:54:13.994Z,30.53
2019-03-22T18:56:46.023Z,32.63
2019-03-22T18:59:18.088Z,31.47
2019-03-22T19:01:50.186Z,31.03
2019-03-22T19:04:22.278Z,31.13
2019-03-22T19:06:54.362Z,33.43
2019-03-22T19:09:26.526Z,29.57
2019-03-22T19:11:58.846Z,30.77
2019-03-22T19:14:31.683Z,34.80
2019-03-22T19:17:03.701Z,33.17
2019-03-22T19:19:35.818Z,34.17
2019-03-22T19:22:09.096Z,37.00
2019-03-22T19:24:46.759Z,41.50
2019-03-22T19:27:20.459Z,41.40
2019-03-22T19:29:52.454Z,33.13
2019-03-22T19:32:28.309Z,41.67
2019-03-22T19:35:00.412Z,32.17
2019-03-22T19:37:33.196Z,34.53
2019-03-22T19:40:12.682Z,32.83
2019-03-22T19:42:45.005Z,35.13
2019-03-22T19:45:17.501Z,36.83
2019-03-22T19:47:49.627Z,33.47
2019-03-22T19:50:21.629Z,39.40
2019-03-22T19:52:53.960Z,31.90
2019-03-22T19:55:25.997Z,36.03
2019-03-22T19:57:57.961Z,34.70
2019-03-22T20:00:30.030Z,33.77
2019-03-22T20:03:02.064Z,34.80
2019-03-22T20:05:34.613Z,39.23
2019-03-22T20:08:07.020Z,35.97
2019-03-22T20:10:39.116Z,37.07
2019-03-22T20:13:11.246Z,34.43
2019-03-22T20:15:44.192Z,36.00
2019-03-22T20:18:16.254Z,40.10
2019-03-22T20:20:48.338Z,39.47
2019-03-22T20:23:20.362Z,38.10
2019-03-22T20:25:52.832Z,39.27
2019-03-22T20:28:24.879Z,36.67
2019-03-22T20:30:56.866Z,39.23
2019-03-22T20:33:28.904Z,38.23
2019-03-22T20:36:01.252Z,39.63
2019-03-22T20:38:33.278Z,38.93
2019-03-22T20:41:05.704Z,39.60
2019-03-22T20:43:37.703Z,42.07
2019-03-22T20:46:09.738Z,38.13
2019-03-22T20:48:41.725Z,48.70
2019-03-22T20:51:14.013Z,43.87
2019-03-22T20:53:46.081Z,44.33
2019-03-22T20:56:18.402Z,45.70
2019-03-22T20:58:50.558Z,50.33
2019-03-22T21:01:22.692Z,43.97
2019-03-22T21:03:55.019Z,46.83
2019-03-22T21:06:27.935Z,42.73
2019-03-22T21:09:01.358Z,47.87
2019-03-22T21:14:25.839Z,48.93
2019-03-22T21:17:00.060Z,51.87
2019-03-22T21:19:32.276Z,50.83
2019-03-22T21:22:05.568Z,48.20
2019-03-22T21:24:37.658Z,54.17
2019-03-22T21:27:15.378Z,50.83
2019-03-22T21:29:44.290Z,52.70
2019-03-22T21:32:18.699Z,54.33
2019-03-22T21:34:50.950Z,52.53
2019-03-22T21:37:23.020Z,49.90
2019-03-22T21:39:55.166Z,49.37
2019-03-22T21:42:27.445Z,56.87
2019-03-22T21:44:59.804Z,49.20
2019-03-22T21:47:32.231Z,53.03
2019-03-22T21:50:06.746Z,50.20
2019-03-22T21:52:38.761Z,64.67
2019-03-22T21:55:11.453Z,56.60
2019-03-22T21:57:44.195Z,55.50
2019-03-22T22:00:16.736Z,53.60
2019-03-22T22:02:48.868Z,64.60
2019-03-22T22:05:21.678Z,57.93
2019-03-22T22:07:53.727Z,63.83
2019-03-22T22:10:25.812Z,63.23
2019-03-22T22:12:57.794Z,65.70
2019-03-22T22:15:29.835Z,62.73
2019-03-22T22:18:03.912Z,64.37
2019-03-22T22:20:36.075Z,70.33
2019-03-22T22:23:08.781Z,74.37
2019-03-22T22:25:46.993Z,82.00
2019-03-22T22:28:20.939Z,78.37
2019-03-22T22:30:53.255Z,83.00
2019-03-22T22:33:25.953Z,86.53
2019-03-22T22:35:59.045Z,77.07
2019-03-22T22:38:31.738Z,87.60
2019-03-22T22:41:03.740Z,92.17
2019-03-22T22:43:38.941Z,103.80
2019-03-22T22:46:11.946Z,96.20
2019-03-22T22:48:45.621Z,105.90
2019-03-22T22:51:17.632Z,101.63
2019-03-22T22:53:49.647Z,98.37
2019-03-22T22:56:21.738Z,100.27
2019-03-22T22:58:53.775Z,102.27
2019-03-22T23:01:25.792Z,103.33
2019-03-22T23:03:57.810Z,107.93
2019-03-22T23:06:29.852Z,107.43
2019-03-22T23:09:01.886Z,104.00
2019-03-22T23:11:33.978Z,105.47
2019-03-22T23:14:05.962Z,106.03
2019-03-22T23:16:37.980Z,109.73
2019-03-22T23:19:10.010Z,103.87
2019-03-22T23:21:42.048Z,106.07
2019-03-22T23:24:14.333Z,109.47
2019-03-22T23:26:46.664Z,104.07
2019-03-22T23:29:18.986Z,101.77
2019-03-22T23:31:51.029Z,119.63
2019-03-22T23:34:23.132Z,110.27
2019-03-22T23:36:55.236Z,114.27
2019-03-22T23:39:27.268Z,110.67
2019-03-22T23:41:59.367Z,120.00
2019-03-22T23:44:31.375Z,111.47
2019-03-22T23:47:03.425Z,112.60
2019-03-22T23:49:35.711Z,124.83
2019-03-22T23:52:07.875Z,111.17
2019-03-22T23:54:39.940Z,126.00
2019-03-22T23:57:11.984Z,117.97
2019-03-22T23:59:45.244Z,120.97
